sensor_id;sensor_type;location;lat;lon;timestamp;temperature;humidity
70154;DHT22;57519;51.494;-2.626;2022-09-28T00:01:33;8.46;83.76
70154;DHT22;57519;51.494;-2.626;2022-09-28T00:03:59;8.40;83.44
70154;DHT22;57519;51.494;-2.626;2022-09-28T00:06:27;8.30;83.40
70154;DHT22;57519;51.494;-2.626;2022-09-28T00:08:54;8.16;83.66
70154;DHT22;57519;51.494;-2.626;2022-09-28T00:11:21;8.22;84.43
70154;DHT22;57519;51.494;-2.626;2022-09-28T00:13:52;8.19;84.14
70154;DHT22;57519;51.494;-2.626;2022-09-28T00:16:26;8.14;84.02
70154;DHT22;57519;51.494;-2.626;2022-09-28T00:18:52;8.03;84.42
70154;DHT22;57519;51.494;-2.626;2022-09-28T00:21:20;7.99;84.23
70154;DHT22;57519;51.494;-2.626;2022-09-28T00:23:46;7.92;84.14
70154;DHT22;57519;51.494;-2.626;2022-09-28T00:26:32;7.88;84.73
70154;DHT22;57519;51.494;-2.626;2022-09-28T00:29:00;7.79;84.84
70154;DHT22;57519;51.494;-2.626;2022-09-28T00:31:31;7.75;84.89
70154;DHT22;57519;51.494;-2.626;2022-09-28T00:33:58;7.73;84.62
70154;DHT22;57519;51.494;-2.626;2022-09-28T00:36:25;7.73;84.62
70154;DHT22;57519;51.494;-2.626;2022-09-28T00:38:57;7.79;84.76
70154;DHT22;57519;51.494;-2.626;2022-09-28T00:41:24;7.86;84.68
70154;DHT22;57519;51.494;-2.626;2022-09-28T00:43:51;7.89;84.53
70154;DHT22;57519;51.494;-2.626;2022-09-28T00:46:26;7.79;84.45
70154;DHT22;57519;51.494;-2.626;2022-09-28T00:49:02;7.82;84.35
70154;DHT22;57519;51.494;-2.626;2022-09-28T00:51:30;7.77;84.47
70154;DHT22;57519;51.494;-2.626;2022-09-28T00:53:57;7.84;84.80
70154;DHT22;57519;51.494;-2.626;2022-09-28T00:56:25;7.84;84.42
70154;DHT22;57519;51.494;-2.626;2022-09-28T00:58:52;7.77;84.22
70154;DHT22;57519;51.494;-2.626;2022-09-28T01:01:18;7.79;84.25
70154;DHT22;57519;51.494;-2.626;2022-09-28T01:03:44;7.74;84.19
70154;DHT22;57519;51.494;-2.626;2022-09-28T01:06:33;7.73;84.28
70154;DHT22;57519;51.494;-2.626;2022-09-28T01:09:03;7.70;84.45
70154;DHT22;57519;51.494;-2.626;2022-09-28T01:11:31;7.73;84.40
70154;DHT22;57519;51.494;-2.626;2022-09-28T01:13:57;7.77;84.58
70154;DHT22;57519;51.494;-2.626;2022-09-28T01:17:00;7.84;84.55
70154;DHT22;57519;51.494;-2.626;2022-09-28T01:22:27;7.96;84.49
70154;DHT22;57519;51.494;-2.626;2022-09-28T01:25:12;8.03;84.38
70154;DHT22;57519;51.494;-2.626;2022-09-28T01:27:49;8.07;84.51
70154;DHT22;57519;51.494;-2.626;2022-09-28T01:30:17;8.07;84.63
70154;DHT22;57519;51.494;-2.626;2022-09-28T01:32:54;8.12;84.68
70154;DHT22;57519;51.494;-2.626;2022-09-28T01:35:30;8.19;84.46
70154;DHT22;57519;51.494;-2.626;2022-09-28T01:38:04;8.17;84.49
70154;DHT22;57519;51.494;-2.626;2022-09-28T01:40:31;8.22;84.39
70154;DHT22;57519;51.494;-2.626;2022-09-28T01:43:36;8.23;84.21
70154;DHT22;57519;51.494;-2.626;2022-09-28T01:46:10;8.13;84.30
70154;DHT22;57519;51.494;-2.626;2022-09-28T01:48:45;8.10;84.41
70154;DHT22;57519;51.494;-2.626;2022-09-28T01:51:26;8.03;84.25
70154;DHT22;57519;51.494;-2.626;2022-09-28T01:53:57;7.92;84.29
70154;DHT22;57519;51.494;-2.626;2022-09-28T01:56:36;7.95;84.50
70154;DHT22;57519;51.494;-2.626;2022-09-28T01:59:11;7.86;84.58
70154;DHT22;57519;51.494;-2.626;2022-09-28T02:01:44;7.88;84.89
70154;DHT22;57519;51.494;-2.626;2022-09-28T02:04:26;7.86;85.13
70154;DHT22;57519;51.494;-2.626;2022-09-28T02:07:04;7.81;85.17
70154;DHT22;57519;51.494;-2.626;2022-09-28T02:09:40;7.85;85.40
70154;DHT22;57519;51.494;-2.626;2022-09-28T02:12:28;7.85;85.03
70154;DHT22;57519;51.494;-2.626;2022-09-28T02:15:15;7.86;85.28
70154;DHT22;57519;51.494;-2.626;2022-09-28T02:17:42;7.75;85.13
70154;DHT22;57519;51.494;-2.626;2022-09-28T02:20:08;7.77;85.33
70154;DHT22;57519;51.494;-2.626;2022-09-28T02:22:55;7.79;85.44
70154;DHT22;57519;51.494;-2.626;2022-09-28T02:25:32;7.94;85.45
70154;DHT22;57519;51.494;-2.626;2022-09-28T02:28:25;7.91;85.23
70154;DHT22;57519;51.494;-2.626;2022-09-28T02:30:51;7.92;85.35
70154;DHT22;57519;51.494;-2.626;2022-09-28T02:33:37;7.89;85.22
70154;DHT22;57519;51.494;-2.626;2022-09-28T02:36:04;7.86;85.34
70154;DHT22;57519;51.494;-2.626;2022-09-28T02:38:30;7.82;85.37
70154;DHT22;57519;51.494;-2.626;2022-09-28T02:46:41;7.51;85.70
70154;DHT22;57519;51.494;-2.626;2022-09-28T02:52:01;7.46;86.02
70154;DHT22;57519;51.494;-2.626;2022-09-28T03:00:20;7.48;86.10
70154;DHT22;57519;51.494;-2.626;2022-09-28T03:09:03;7.88;86.00
70154;DHT22;57519;51.494;-2.626;2022-09-28T03:11:37;8.03;85.90
70154;DHT22;57519;51.494;-2.626;2022-09-28T03:14:05;8.39;84.76
70154;DHT22;57519;51.494;-2.626;2022-09-28T03:16:31;8.74;83.54
70154;DHT22;57519;51.494;-2.626;2022-09-28T03:18:57;8.87;82.81
70154;DHT22;57519;51.494;-2.626;2022-09-28T03:21:22;8.81;83.08
70154;DHT22;57519;51.494;-2.626;2022-09-28T03:23:48;8.87;83.08
70154;DHT22;57519;51.494;-2.626;2022-09-28T03:26:13;8.93;82.72
70154;DHT22;57519;51.494;-2.626;2022-09-28T03:28:41;8.87;82.88
70154;DHT22;57519;51.494;-2.626;2022-09-28T03:31:06;8.98;82.64
70154;DHT22;57519;51.494;-2.626;2022-09-28T03:33:32;8.82;82.86
70154;DHT22;57519;51.494;-2.626;2022-09-28T03:35:57;8.70;83.64
70154;DHT22;57519;51.494;-2.626;2022-09-28T03:38:23;8.59;84.10
70154;DHT22;57519;51.494;-2.626;2022-09-28T03:40:53;8.65;84.21
70154;DHT22;57519;51.494;-2.626;2022-09-28T03:43:19;8.65;84.13
70154;DHT22;57519;51.494;-2.626;2022-09-28T03:45:51;8.70;84.30
70154;DHT22;57519;51.494;-2.626;2022-09-28T03:48:20;8.71;84.42
70154;DHT22;57519;51.494;-2.626;2022-09-28T03:50:45;8.71;84.49
70154;DHT22;57519;51.494;-2.626;2022-09-28T03:53:11;8.77;84.46
70154;DHT22;57519;51.494;-2.626;2022-09-28T03:55:36;8.89;84.08
70154;DHT22;57519;51.494;-2.626;2022-09-28T03:58:02;8.95;84.11
70154;DHT22;57519;51.494;-2.626;2022-09-28T04:00:27;9.14;83.40
70154;DHT22;57519;51.494;-2.626;2022-09-28T04:02:53;9.14;83.45
70154;DHT22;57519;51.494;-2.626;2022-09-28T04:05:19;9.18;83.37
70154;DHT22;57519;51.494;-2.626;2022-09-28T04:07:44;9.19;83.61
70154;DHT22;57519;51.494;-2.626;2022-09-28T04:10:10;9.12;83.92
70154;DHT22;57519;51.494;-2.626;2022-09-28T04:12:35;9.05;83.75
70154;DHT22;57519;51.494;-2.626;2022-09-28T04:17:26;8.97;84.74
70154;DHT22;57519;51.494;-2.626;2022-09-28T04:19:51;8.95;84.73
70154;DHT22;57519;51.494;-2.626;2022-09-28T04:22:17;8.93;84.64
70154;DHT22;57519;51.494;-2.626;2022-09-28T04:24:42;8.85;84.78
70154;DHT22;57519;51.494;-2.626;2022-09-28T04:27:08;8.92;84.84
70154;DHT22;57519;51.494;-2.626;2022-09-28T04:29:52;8.89;84.78
70154;DHT22;57519;51.494;-2.626;2022-09-28T04:32:17;8.89;84.81
70154;DHT22;57519;51.494;-2.626;2022-09-28T04:34:43;8.87;84.82
70154;DHT22;57519;51.494;-2.626;2022-09-28T04:37:08;8.85;85.04
70154;DHT22;57519;51.494;-2.626;2022-09-28T04:39:33;8.88;85.29
70154;DHT22;57519;51.494;-2.626;2022-09-28T04:41:59;8.89;85.66
70154;DHT22;57519;51.494;-2.626;2022-09-28T04:44:25;8.89;85.39
70154;DHT22;57519;51.494;-2.626;2022-09-28T04:46:50;8.93;85.71
70154;DHT22;57519;51.494;-2.626;2022-09-28T04:49:16;8.92;85.76
70154;DHT22;57519;51.494;-2.626;2022-09-28T04:51:41;8.91;85.85
70154;DHT22;57519;51.494;-2.626;2022-09-28T04:54:06;8.97;85.86
70154;DHT22;57519;51.494;-2.626;2022-09-28T04:56:32;8.97;85.59
70154;DHT22;57519;51.494;-2.626;2022-09-28T04:58:57;8.97;85.66
70154;DHT22;57519;51.494;-2.626;2022-09-28T05:01:23;8.92;85.57
70154;DHT22;57519;51.494;-2.626;2022-09-28T05:03:48;8.85;85.71
70154;DHT22;57519;51.494;-2.626;2022-09-28T05:06:15;8.78;85.76
70154;DHT22;57519;51.494;-2.626;2022-09-28T05:08:41;8.72;85.81
70154;DHT22;57519;51.494;-2.626;2022-09-28T05:11:09;8.77;86.00
70154;DHT22;57519;51.494;-2.626;2022-09-28T05:13:40;8.77;86.15
70154;DHT22;57519;51.494;-2.626;2022-09-28T05:16:07;8.81;86.15
70154;DHT22;57519;51.494;-2.626;2022-09-28T05:18:32;8.88;86.05
70154;DHT22;57519;51.494;-2.626;2022-09-28T05:20:58;8.93;85.98
70154;DHT22;57519;51.494;-2.626;2022-09-28T05:23:23;8.85;86.19
70154;DHT22;57519;51.494;-2.626;2022-09-28T05:25:49;8.81;85.98
70154;DHT22;57519;51.494;-2.626;2022-09-28T05:28:21;8.80;86.09
70154;DHT22;57519;51.494;-2.626;2022-09-28T05:30:48;8.82;86.26
70154;DHT22;57519;51.494;-2.626;2022-09-28T05:33:13;8.77;86.19
70154;DHT22;57519;51.494;-2.626;2022-09-28T05:35:39;8.77;86.59
70154;DHT22;57519;51.494;-2.626;2022-09-28T05:38:04;8.70;86.88
70154;DHT22;57519;51.494;-2.626;2022-09-28T05:40:30;8.71;86.97
70154;DHT22;57519;51.494;-2.626;2022-09-28T05:43:01;8.68;86.91
70154;DHT22;57519;51.494;-2.626;2022-09-28T05:45:27;8.64;86.63
70154;DHT22;57519;51.494;-2.626;2022-09-28T05:47:53;8.59;86.86
70154;DHT22;57519;51.494;-2.626;2022-09-28T05:50:19;8.50;86.86
70154;DHT22;57519;51.494;-2.626;2022-09-28T05:52:44;8.50;87.26
70154;DHT22;57519;51.494;-2.626;2022-09-28T05:55:11;8.41;87.03
70154;DHT22;57519;51.494;-2.626;2022-09-28T05:57:37;8.49;87.14
70154;DHT22;57519;51.494;-2.626;2022-09-28T06:00:06;8.43;87.03
70154;DHT22;57519;51.494;-2.626;2022-09-28T06:02:33;8.47;87.04
70154;DHT22;57519;51.494;-2.626;2022-09-28T06:04:59;8.44;86.89
70154;DHT22;57519;51.494;-2.626;2022-09-28T06:07:24;8.47;87.04
70154;DHT22;57519;51.494;-2.626;2022-09-28T06:09:49;8.46;87.04
70154;DHT22;57519;51.494;-2.626;2022-09-28T06:12:15;8.51;87.22
70154;DHT22;57519;51.494;-2.626;2022-09-28T06:14:40;8.57;86.90
70154;DHT22;57519;51.494;-2.626;2022-09-28T06:17:06;8.57;87.05
70154;DHT22;57519;51.494;-2.626;2022-09-28T06:19:31;8.74;87.21
70154;DHT22;57519;51.494;-2.626;2022-09-28T06:21:57;8.81;86.86
70154;DHT22;57519;51.494;-2.626;2022-09-28T06:24:23;8.87;86.56
70154;DHT22;57519;51.494;-2.626;2022-09-28T06:26:48;8.93;86.54
70154;DHT22;57519;51.494;-2.626;2022-09-28T06:29:14;9.02;86.21
70154;DHT22;57519;51.494;-2.626;2022-09-28T06:31:43;9.09;85.78
70154;DHT22;57519;51.494;-2.626;2022-09-28T06:34:10;9.20;85.60
70154;DHT22;57519;51.494;-2.626;2022-09-28T06:36:37;9.33;85.37
70154;DHT22;57519;51.494;-2.626;2022-09-28T06:39:02;9.37;85.33
70154;DHT22;57519;51.494;-2.626;2022-09-28T06:41:28;9.47;85.38
70154;DHT22;57519;51.494;-2.626;2022-09-28T06:43:53;9.54;85.31
70154;DHT22;57519;51.494;-2.626;2022-09-28T06:46:19;9.63;85.23
70154;DHT22;57519;51.494;-2.626;2022-09-28T06:48:45;9.73;84.92
70154;DHT22;57519;51.494;-2.626;2022-09-28T06:51:10;9.78;84.96
70154;DHT22;57519;51.494;-2.626;2022-09-28T06:53:36;9.90;84.96
70154;DHT22;57519;51.494;-2.626;2022-09-28T06:56:01;9.93;85.22
70154;DHT22;57519;51.494;-2.626;2022-09-28T06:58:27;10.11;84.47
70154;DHT22;57519;51.494;-2.626;2022-09-28T07:00:55;10.23;84.29
70154;DHT22;57519;51.494;-2.626;2022-09-28T07:03:23;10.36;84.54
70154;DHT22;57519;51.494;-2.626;2022-09-28T07:05:51;10.43;83.06
70154;DHT22;57519;51.494;-2.626;2022-09-28T07:08:20;10.48;82.88
70154;DHT22;57519;51.494;-2.626;2022-09-28T07:10:48;10.56;82.71
70154;DHT22;57519;51.494;-2.626;2022-09-28T07:13:15;10.67;83.01
70154;DHT22;57519;51.494;-2.626;2022-09-28T07:15:41;10.76;83.09
70154;DHT22;57519;51.494;-2.626;2022-09-28T07:18:08;10.83;82.45
70154;DHT22;57519;51.494;-2.626;2022-09-28T07:20:35;10.93;81.93
70154;DHT22;57519;51.494;-2.626;2022-09-28T07:23:03;10.97;82.05
70154;DHT22;57519;51.494;-2.626;2022-09-28T07:25:30;11.06;81.97
70154;DHT22;57519;51.494;-2.626;2022-09-28T07:27:59;11.10;81.71
70154;DHT22;57519;51.494;-2.626;2022-09-28T07:30:27;11.11;79.79
70154;DHT22;57519;51.494;-2.626;2022-09-28T07:32:53;11.19;79.11
70154;DHT22;57519;51.494;-2.626;2022-09-28T07:35:19;11.25;78.19
70154;DHT22;57519;51.494;-2.626;2022-09-28T07:37:44;11.32;77.65
70154;DHT22;57519;51.494;-2.626;2022-09-28T07:40:10;11.40;78.00
70154;DHT22;57519;51.494;-2.626;2022-09-28T07:42:55;11.49;77.09
70154;DHT22;57519;51.494;-2.626;2022-09-28T07:45:21;11.52;76.99
70154;DHT22;57519;51.494;-2.626;2022-09-28T07:47:53;11.63;76.50
70154;DHT22;57519;51.494;-2.626;2022-09-28T07:50:20;11.70;76.47
70154;DHT22;57519;51.494;-2.626;2022-09-28T07:52:45;11.79;76.17
70154;DHT22;57519;51.494;-2.626;2022-09-28T07:55:11;11.86;76.06
70154;DHT22;57519;51.494;-2.626;2022-09-28T07:57:36;11.97;75.44
70154;DHT22;57519;51.494;-2.626;2022-09-28T08:00:03;12.04;75.49
70154;DHT22;57519;51.494;-2.626;2022-09-28T08:02:31;12.11;75.15
70154;DHT22;57519;51.494;-2.626;2022-09-28T08:04:58;12.18;74.56
70154;DHT22;57519;51.494;-2.626;2022-09-28T08:07:24;12.27;74.22
70154;DHT22;57519;51.494;-2.626;2022-09-28T08:09:50;12.40;73.86
70154;DHT22;57519;51.494;-2.626;2022-09-28T08:12:15;12.48;73.50
70154;DHT22;57519;51.494;-2.626;2022-09-28T08:14:42;12.62;73.02
70154;DHT22;57519;51.494;-2.626;2022-09-28T08:17:07;12.73;72.96
70154;DHT22;57519;51.494;-2.626;2022-09-28T08:19:34;12.93;71.69
70154;DHT22;57519;51.494;-2.626;2022-09-28T08:22:19;12.97;71.89
70154;DHT22;57519;51.494;-2.626;2022-09-28T08:24:45;13.09;70.75
70154;DHT22;57519;51.494;-2.626;2022-09-28T08:27:12;13.04;70.97
70154;DHT22;57519;51.494;-2.626;2022-09-28T08:29:38;13.16;71.01
70154;DHT22;57519;51.494;-2.626;2022-09-28T08:32:04;12.99;70.28
70154;DHT22;57519;51.494;-2.626;2022-09-28T08:34:33;13.03;70.38
70154;DHT22;57519;51.494;-2.626;2022-09-28T08:36:58;13.20;69.95
70154;DHT22;57519;51.494;-2.626;2022-09-28T08:39:23;13.28;69.48
70154;DHT22;57519;51.494;-2.626;2022-09-28T08:44:43;13.47;68.75
70154;DHT22;57519;51.494;-2.626;2022-09-28T08:47:23;13.61;68.99
70154;DHT22;57519;51.494;-2.626;2022-09-28T08:50:13;13.72;68.12
70154;DHT22;57519;51.494;-2.626;2022-09-28T08:52:42;13.69;67.58
70154;DHT22;57519;51.494;-2.626;2022-09-28T08:55:31;13.66;68.22
70154;DHT22;57519;51.494;-2.626;2022-09-28T08:58:01;13.93;67.98
70154;DHT22;57519;51.494;-2.626;2022-09-28T09:00:32;14.22;67.14
70154;DHT22;57519;51.494;-2.626;2022-09-28T09:03:08;14.29;66.80
70154;DHT22;57519;51.494;-2.626;2022-09-28T09:16:52;13.82;68.24
70154;DHT22;57519;51.494;-2.626;2022-09-28T09:22:22;13.86;66.97
70154;DHT22;57519;51.494;-2.626;2022-09-28T09:24:54;13.81;66.98
70154;DHT22;57519;51.494;-2.626;2022-09-28T09:27:42;13.96;67.84
70154;DHT22;57519;51.494;-2.626;2022-09-28T09:30:14;13.54;67.56
70154;DHT22;57519;51.494;-2.626;2022-09-28T09:32:56;13.50;67.83
70154;DHT22;57519;51.494;-2.626;2022-09-28T09:46:11;13.83;67.16
70154;DHT22;57519;51.494;-2.626;2022-09-28T09:48:46;13.95;67.31
70154;DHT22;57519;51.494;-2.626;2022-09-28T09:54:05;13.96;66.63
70154;DHT22;57519;51.494;-2.626;2022-09-28T09:56:57;13.89;67.29
70154;DHT22;57519;51.494;-2.626;2022-09-28T09:59:31;14.08;66.33
70154;DHT22;57519;51.494;-2.626;2022-09-28T10:02:01;14.19;65.70
70154;DHT22;57519;51.494;-2.626;2022-09-28T10:04:35;14.26;65.76
70154;DHT22;57519;51.494;-2.626;2022-09-28T10:07:05;14.43;65.12
70154;DHT22;57519;51.494;-2.626;2022-09-28T10:09:38;14.57;65.05
70154;DHT22;57519;51.494;-2.626;2022-09-28T10:12:08;14.68;63.65
70154;DHT22;57519;51.494;-2.626;2022-09-28T10:14:39;14.82;63.81
70154;DHT22;57519;51.494;-2.626;2022-09-28T10:17:04;15.12;63.06
70154;DHT22;57519;51.494;-2.626;2022-09-28T10:19:32;15.10;61.84
70154;DHT22;57519;51.494;-2.626;2022-09-28T10:21:59;15.15;61.74
70154;DHT22;57519;51.494;-2.626;2022-09-28T10:24:31;15.05;61.23
70154;DHT22;57519;51.494;-2.626;2022-09-28T10:27:03;15.09;61.69
70154;DHT22;57519;51.494;-2.626;2022-09-28T10:29:37;14.95;61.61
70154;DHT22;57519;51.494;-2.626;2022-09-28T10:32:20;14.95;61.42
70154;DHT22;57519;51.494;-2.626;2022-09-28T10:34:46;14.99;61.54
70154;DHT22;57519;51.494;-2.626;2022-09-28T10:37:12;15.26;61.40
70154;DHT22;57519;51.494;-2.626;2022-09-28T10:42:11;15.06;60.73
70154;DHT22;57519;51.494;-2.626;2022-09-28T10:44:49;14.81;61.50
70154;DHT22;57519;51.494;-2.626;2022-09-28T10:47:18;14.87;60.66
70154;DHT22;57519;51.494;-2.626;2022-09-28T10:49:46;14.98;60.57
70154;DHT22;57519;51.494;-2.626;2022-09-28T10:52:38;14.93;60.45
70154;DHT22;57519;51.494;-2.626;2022-09-28T10:57:45;14.91;60.72
70154;DHT22;57519;51.494;-2.626;2022-09-28T11:02:56;15.39;58.73
70154;DHT22;57519;51.494;-2.626;2022-09-28T11:05:25;15.46;57.70
70154;DHT22;57519;51.494;-2.626;2022-09-28T11:07:55;15.50;55.94
70154;DHT22;57519;51.494;-2.626;2022-09-28T11:10:25;15.61;56.82
70154;DHT22;57519;51.494;-2.626;2022-09-28T11:12:52;15.61;57.28
70154;DHT22;57519;51.494;-2.626;2022-09-28T11:15:21;15.43;58.51
70154;DHT22;57519;51.494;-2.626;2022-09-28T11:17:48;15.32;58.41
70154;DHT22;57519;51.494;-2.626;2022-09-28T11:20:32;15.09;58.86
70154;DHT22;57519;51.494;-2.626;2022-09-28T11:23:16;15.35;58.88
70154;DHT22;57519;51.494;-2.626;2022-09-28T11:25:42;15.43;58.30
70154;DHT22;57519;51.494;-2.626;2022-09-28T11:28:21;15.30;58.35
70154;DHT22;57519;51.494;-2.626;2022-09-28T11:30:51;15.39;59.12
70154;DHT22;57519;51.494;-2.626;2022-09-28T11:33:23;15.58;59.11
70154;DHT22;57519;51.494;-2.626;2022-09-28T11:39:16;15.64;58.53
70154;DHT22;57519;51.494;-2.626;2022-09-28T11:42:05;15.80;58.22
70154;DHT22;57519;51.494;-2.626;2022-09-28T11:44:37;15.78;58.39
70154;DHT22;57519;51.494;-2.626;2022-09-28T11:47:31;15.98;57.48
70154;DHT22;57519;51.494;-2.626;2022-09-28T11:55:35;16.08;56.36
70154;DHT22;57519;51.494;-2.626;2022-09-28T11:58:20;16.11;57.07
70154;DHT22;57519;51.494;-2.626;2022-09-28T12:03:39;16.00;57.01
70154;DHT22;57519;51.494;-2.626;2022-09-28T12:06:10;15.56;59.21
70154;DHT22;57519;51.494;-2.626;2022-09-28T12:08:42;15.37;61.06
70154;DHT22;57519;51.494;-2.626;2022-09-28T12:11:20;15.40;57.90
70154;DHT22;57519;51.494;-2.626;2022-09-28T12:13:48;15.53;57.91
70154;DHT22;57519;51.494;-2.626;2022-09-28T12:16:19;15.60;60.25
70154;DHT22;57519;51.494;-2.626;2022-09-28T12:21:58;15.50;61.20
70154;DHT22;57519;51.494;-2.626;2022-09-28T12:24:30;15.49;60.33
70154;DHT22;57519;51.494;-2.626;2022-09-28T12:29:38;15.75;58.32
70154;DHT22;57519;51.494;-2.626;2022-09-28T12:32:17;15.83;57.72
70154;DHT22;57519;51.494;-2.626;2022-09-28T12:34:46;15.95;58.36
70154;DHT22;57519;51.494;-2.626;2022-09-28T12:50:45;16.45;55.84
70154;DHT22;57519;51.494;-2.626;2022-09-28T12:56:02;16.87;55.63
70154;DHT22;57519;51.494;-2.626;2022-09-28T12:58:54;17.06;53.97
70154;DHT22;57519;51.494;-2.626;2022-09-28T13:01:44;16.77;55.48
70154;DHT22;57519;51.494;-2.626;2022-09-28T13:07:02;17.06;54.66
70154;DHT22;57519;51.494;-2.626;2022-09-28T13:12:29;16.81;55.01
70154;DHT22;57519;51.494;-2.626;2022-09-28T13:17:50;16.00;59.03
70154;DHT22;57519;51.494;-2.626;2022-09-28T13:23:13;14.84;62.77
70154;DHT22;57519;51.494;-2.626;2022-09-28T13:25:48;14.51;62.57
70154;DHT22;57519;51.494;-2.626;2022-09-28T13:28:17;14.17;65.51
70154;DHT22;57519;51.494;-2.626;2022-09-28T13:30:46;13.71;74.30
70154;DHT22;57519;51.494;-2.626;2022-09-28T13:33:42;12.99;79.65
70154;DHT22;57519;51.494;-2.626;2022-09-28T13:38:53;12.42;89.48
70154;DHT22;57519;51.494;-2.626;2022-09-28T13:41:32;12.31;89.86
70154;DHT22;57519;51.494;-2.626;2022-09-28T13:57:17;13.00;84.64
70154;DHT22;57519;51.494;-2.626;2022-09-28T14:02:43;13.30;84.34
70154;DHT22;57519;51.494;-2.626;2022-09-28T14:08:13;13.75;83.58
70154;DHT22;57519;51.494;-2.626;2022-09-28T14:10:47;13.82;82.72
70154;DHT22;57519;51.494;-2.626;2022-09-28T14:16:21;13.87;80.63
70154;DHT22;57519;51.494;-2.626;2022-09-28T14:18:51;13.86;80.17
70154;DHT22;57519;51.494;-2.626;2022-09-28T14:29:42;14.20;78.82
70154;DHT22;57519;51.494;-2.626;2022-09-28T14:34:45;13.95;77.84
70154;DHT22;57519;51.494;-2.626;2022-09-28T14:37:45;13.93;78.19
70154;DHT22;57519;51.494;-2.626;2022-09-28T14:40:58;13.90;76.21
70154;DHT22;57519;51.494;-2.626;2022-09-28T14:48:54;13.78;79.69
70154;DHT22;57519;51.494;-2.626;2022-09-28T14:53:57;14.02;77.95
70154;DHT22;57519;51.494;-2.626;2022-09-28T15:04:17;13.79;75.34
70154;DHT22;57519;51.494;-2.626;2022-09-28T15:06:48;13.75;76.44
70154;DHT22;57519;51.494;-2.626;2022-09-28T15:09:46;13.68;76.75
70154;DHT22;57519;51.494;-2.626;2022-09-28T15:12:25;13.50;77.19
70154;DHT22;57519;51.494;-2.626;2022-09-28T15:15:02;13.30;77.29
70154;DHT22;57519;51.494;-2.626;2022-09-28T15:17:31;13.21;77.67
70154;DHT22;57519;51.494;-2.626;2022-09-28T15:20:23;13.09;76.94
70154;DHT22;57519;51.494;-2.626;2022-09-28T15:22:53;13.03;77.83
70154;DHT22;57519;51.494;-2.626;2022-09-28T15:25:27;13.10;77.94
70154;DHT22;57519;51.494;-2.626;2022-09-28T15:28:16;13.27;80.00
70154;DHT22;57519;51.494;-2.626;2022-09-28T15:30:42;13.27;77.33
70154;DHT22;57519;51.494;-2.626;2022-09-28T15:33:25;13.33;77.22
70154;DHT22;57519;51.494;-2.626;2022-09-28T15:36:16;13.40;75.13
70154;DHT22;57519;51.494;-2.626;2022-09-28T15:38:51;13.47;75.65
70154;DHT22;57519;51.494;-2.626;2022-09-28T15:41:17;13.43;73.39
70154;DHT22;57519;51.494;-2.626;2022-09-28T15:43:43;13.43;73.13
70154;DHT22;57519;51.494;-2.626;2022-09-28T15:46:17;13.44;73.13
70154;DHT22;57519;51.494;-2.626;2022-09-28T15:48:51;13.33;74.28
70154;DHT22;57519;51.494;-2.626;2022-09-28T15:51:18;13.14;75.01
70154;DHT22;57519;51.494;-2.626;2022-09-28T15:56:27;12.72;79.23
70154;DHT22;57519;51.494;-2.626;2022-09-28T16:01:41;11.83;82.83
70154;DHT22;57519;51.494;-2.626;2022-09-28T16:04:38;11.40;83.92
70154;DHT22;57519;51.494;-2.626;2022-09-28T16:07:34;11.19;85.89
70154;DHT22;57519;51.494;-2.626;2022-09-28T16:15:31;10.83;87.95
70154;DHT22;57519;51.494;-2.626;2022-09-28T16:18:04;10.76;88.74
70154;DHT22;57519;51.494;-2.626;2022-09-28T16:20:47;10.67;88.71
70154;DHT22;57519;51.494;-2.626;2022-09-28T16:23:28;10.77;89.45
70154;DHT22;57519;51.494;-2.626;2022-09-28T16:36:28;10.77;88.53
70154;DHT22;57519;51.494;-2.626;2022-09-28T16:39:02;10.83;88.39
70154;DHT22;57519;51.494;-2.626;2022-09-28T16:41:31;10.90;88.80
70154;DHT22;57519;51.494;-2.626;2022-09-28T16:43:58;11.04;89.44
70154;DHT22;57519;51.494;-2.626;2022-09-28T16:46:31;11.14;89.29
70154;DHT22;57519;51.494;-2.626;2022-09-28T16:49:00;11.22;89.50
70154;DHT22;57519;51.494;-2.626;2022-09-28T16:51:27;11.32;90.16
70154;DHT22;57519;51.494;-2.626;2022-09-28T16:53:52;11.34;89.98
70154;DHT22;57519;51.494;-2.626;2022-09-28T16:56:36;11.24;89.69
70154;DHT22;57519;51.494;-2.626;2022-09-28T16:59:02;11.18;89.69
70154;DHT22;57519;51.494;-2.626;2022-09-28T17:01:28;11.12;89.84
70154;DHT22;57519;51.494;-2.626;2022-09-28T17:03:55;11.06;89.81
70154;DHT22;57519;51.494;-2.626;2022-09-28T17:06:22;11.08;90.21
70154;DHT22;57519;51.494;-2.626;2022-09-28T17:08:51;11.12;90.04
70154;DHT22;57519;51.494;-2.626;2022-09-28T17:11:18;11.12;90.38
70154;DHT22;57519;51.494;-2.626;2022-09-28T17:13:44;11.10;90.22
70154;DHT22;57519;51.494;-2.626;2022-09-28T17:16:18;11.11;90.50
70154;DHT22;57519;51.494;-2.626;2022-09-28T17:18:45;11.14;90.66
70154;DHT22;57519;51.494;-2.626;2022-09-28T17:21:13;11.15;90.31
70154;DHT22;57519;51.494;-2.626;2022-09-28T17:23:43;11.15;90.53
70154;DHT22;57519;51.494;-2.626;2022-09-28T17:26:22;11.18;90.99
70154;DHT22;57519;51.494;-2.626;2022-09-28T17:28:51;11.14;90.94
70154;DHT22;57519;51.494;-2.626;2022-09-28T17:31:17;11.08;90.93
70154;DHT22;57519;51.494;-2.626;2022-09-28T17:33:42;11.04;91.03
70154;DHT22;57519;51.494;-2.626;2022-09-28T17:36:12;10.97;91.15
70154;DHT22;57519;51.494;-2.626;2022-09-28T17:38:38;10.90;91.32
70154;DHT22;57519;51.494;-2.626;2022-09-28T17:41:03;10.87;91.74
70154;DHT22;57519;51.494;-2.626;2022-09-28T17:43:29;10.85;91.97
70154;DHT22;57519;51.494;-2.626;2022-09-28T17:45:54;10.79;91.93
70154;DHT22;57519;51.494;-2.626;2022-09-28T17:48:20;10.73;92.14
70154;DHT22;57519;51.494;-2.626;2022-09-28T17:50:47;10.67;92.23
70154;DHT22;57519;51.494;-2.626;2022-09-28T17:53:13;10.66;92.35
70154;DHT22;57519;51.494;-2.626;2022-09-28T17:55:39;10.57;92.37
70154;DHT22;57519;51.494;-2.626;2022-09-28T17:58:19;10.59;92.49
70154;DHT22;57519;51.494;-2.626;2022-09-28T18:00:46;10.48;92.39
70154;DHT22;57519;51.494;-2.626;2022-09-28T18:03:17;10.43;92.47
70154;DHT22;57519;51.494;-2.626;2022-09-28T18:05:45;10.41;92.52
70154;DHT22;57519;51.494;-2.626;2022-09-28T18:08:16;10.33;92.49
70154;DHT22;57519;51.494;-2.626;2022-09-28T18:10:42;10.36;92.64
70154;DHT22;57519;51.494;-2.626;2022-09-28T18:13:08;10.33;92.51
70154;DHT22;57519;51.494;-2.626;2022-09-28T18:15:34;10.35;92.81
70154;DHT22;57519;51.494;-2.626;2022-09-28T18:18:00;10.33;92.80
70154;DHT22;57519;51.494;-2.626;2022-09-28T18:20:25;10.33;92.87
70154;DHT22;57519;51.494;-2.626;2022-09-28T18:22:51;10.32;92.72
70154;DHT22;57519;51.494;-2.626;2022-09-28T18:25:17;10.29;92.74
70154;DHT22;57519;51.494;-2.626;2022-09-28T18:27:42;10.38;93.11
70154;DHT22;57519;51.494;-2.626;2022-09-28T18:30:08;10.39;92.95
70154;DHT22;57519;51.494;-2.626;2022-09-28T18:32:36;10.41;92.99
70154;DHT22;57519;51.494;-2.626;2022-09-28T18:35:04;10.36;92.87
70154;DHT22;57519;51.494;-2.626;2022-09-28T18:37:34;10.41;92.79
70154;DHT22;57519;51.494;-2.626;2022-09-28T18:40:00;10.46;93.06
70154;DHT22;57519;51.494;-2.626;2022-09-28T18:42:26;10.38;92.66
70154;DHT22;57519;51.494;-2.626;2022-09-28T18:44:51;10.38;92.51
70154;DHT22;57519;51.494;-2.626;2022-09-28T18:47:17;10.38;92.85